Pensacola Regional Airport
KPNS : now visible

Airfield :











YOU CAN JOIN US ON...

 
LOGIN :

Register | Disclaimer

   EN    FR    IT 

 









Legend :    VFR   Marginal VFR   IFR   Intensive IFR   Very Intensive IFR
Visi :
Ceiling :
>= 8 km
>= 3000ft
5 to 8 km
1000 to 3000 ft
1500m to 5 km
500 to 1000 ft
800 to 1500m
200 to 500 ft
< 800m
< 200 ft
Symbols :   Thunderstorms  Fog  Heavy snow  Heavy precipitations  Wind > 20 kt






- Airport Elevation : 121 ft
- IATA code : PNS


KPNS - Pensacola Regional

CURRENT METAR :
  • 070958Z AUTO 08008KT 6SM +RA BR BKN007 BKN027 OVC080 24/23 A2975 RMK AO2 P0002 T02390228

EXPIRED METARs :
  • 070953Z AUTO 06009KT 6SM RA BR SCT007 BKN034 OVC100 24/23 A2975 RMK AO2 SLP073 P0018 T02390228
  • 070853Z AUTO 09009G15KT 6SM +RA BR OVC007 24/23 A2976 RMK AO2 SLP079 P0025 60035 T02390233 56012
  • 070808Z AUTO 09012G19KT 4SM +RA BR BKN007 BKN011 OVC028 24/23 A2976 RMK AO2 P0011 T02440233
  • 070753Z AUTO 09013G21KT 2 1/2SM +RA BR OVC008 24/23 A2976 RMK AO2 RAB19 SLP080 P0010 T02440233
  • 070737Z AUTO 10014G20KT 10SM -RA OVC009 25/23 A2977 RMK AO2 RAB19 CIG 007V012 P0001 T02500233

TAF KPNS
Valid from the 07 at 06:00 until the 08 at 06:00 UTC


070520Z 0706/0806 10013G22KT 6SM SHRA OVC010
FM070900 10017G27KT 6SM BR OVC010
TEMPO 0709/0713 1SM +RA BR OVC009
FM071500 11018G29KT 6SM SHRA BKN019
FM072300 12020G31KT 6SM SHRA OVC021
FM080400 14023G35KT 6SM SHRA OVC018
KZJX FIR / North America



MET'MAP, your aeronautical weather chart ! - Copyright ORBIFLY December 2007 - Disclaimer

ORBIFLY MET'MAP TEAM :

Programming & Development : Alexandra Zaïnal
Concept & original design : Baudouin d'Aumeries
Assistance for programming : Marc-Olivier Méhu
Technical & hardware support : Manuel Goepfert

Contact : metmap@orbifly.com




SOURCES & CREDITS :

   NOAA       Earth
Advisory